createdAt,value
2019-03-12T00:00:28.342Z,8.33
2019-03-12T00:02:56.837Z,6.87
2019-03-12T00:05:25.412Z,7.27
2019-03-12T00:07:53.987Z,7.83
2019-03-12T00:10:22.539Z,7.10
2019-03-12T00:12:51.109Z,7.50
2019-03-12T00:15:19.684Z,6.83
2019-03-12T00:17:48.322Z,7.17
2019-03-12T00:20:16.892Z,6.93
2019-03-12T00:22:45.467Z,7.03
2019-03-12T00:25:14.035Z,7.07
2019-03-12T00:27:42.582Z,6.97
2019-03-12T00:30:11.426Z,6.73
2019-03-12T00:32:39.967Z,6.70
2019-03-12T00:35:08.882Z,7.43
2019-03-12T00:37:37.785Z,7.67
2019-03-12T00:40:07.864Z,6.77
2019-03-12T00:42:36.437Z,8.20
2019-03-12T00:45:08.151Z,9.43
2019-03-12T00:47:36.818Z,7.47
2019-03-12T00:50:10.422Z,6.57
2019-03-12T00:52:39.054Z,7.03
2019-03-12T00:55:08.766Z,7.17
2019-03-12T00:57:37.422Z,7.07
2019-03-12T01:00:15.572Z,7.70
2019-03-12T01:02:44.247Z,6.67
2019-03-12T01:05:13.235Z,7.10
2019-03-12T01:07:41.922Z,7.97
2019-03-12T01:10:13.867Z,7.47
2019-03-12T01:12:42.483Z,7.17
2019-03-12T01:15:13.003Z,8.67
2019-03-12T01:17:42.005Z,6.80
2019-03-12T01:20:14.926Z,6.47
2019-03-12T01:22:43.585Z,6.50
2019-03-12T01:25:13.769Z,6.63
2019-03-12T01:27:42.492Z,8.73
2019-03-12T01:30:18.219Z,6.23
2019-03-12T01:32:46.863Z,7.83
2019-03-12T01:35:15.901Z,9.10
2019-03-12T01:37:44.614Z,7.83
2019-03-12T01:40:14.789Z,8.80
2019-03-12T01:42:43.431Z,7.43
2019-03-12T01:45:14.080Z,7.73
2019-03-12T01:47:42.769Z,6.70
2019-03-12T01:50:13.096Z,6.43
2019-03-12T01:52:41.734Z,7.37
2019-03-12T01:55:15.423Z,7.07
2019-03-12T01:57:43.969Z,7.00
2019-03-12T02:00:20.537Z,8.30
2019-03-12T02:02:49.146Z,6.90
2019-03-12T02:05:17.717Z,7.07
2019-03-12T02:07:46.442Z,6.63
2019-03-12T02:10:15.331Z,7.30
2019-03-12T02:12:44.202Z,6.23
2019-03-12T02:15:15.439Z,8.50
2019-03-12T02:17:44.083Z,9.50
2019-03-12T02:20:17.798Z,5.70
2019-03-12T02:22:46.415Z,7.60
2019-03-12T02:25:17.322Z,6.93
2019-03-12T02:27:58.855Z,6.80
2019-03-12T02:30:27.526Z,8.90
2019-03-12T02:32:56.081Z,6.20
2019-03-12T02:35:24.656Z,7.80
2019-03-12T02:37:53.247Z,6.30
2019-03-12T02:40:21.788Z,6.90
2019-03-12T02:42:50.446Z,6.43
2019-03-12T02:45:18.988Z,5.73
2019-03-12T02:47:47.578Z,8.83
2019-03-12T02:50:16.541Z,5.23
2019-03-12T02:52:45.319Z,4.70
2019-03-12T02:55:14.830Z,5.03
2019-03-12T02:57:43.476Z,5.67
2019-03-12T03:00:24.222Z,4.50
2019-03-12T03:02:52.796Z,4.97
2019-03-12T03:05:21.535Z,5.20
2019-03-12T03:07:54.669Z,4.50
2019-03-12T03:10:23.498Z,4.70
2019-03-12T03:12:52.511Z,5.33
2019-03-12T03:15:44.858Z,5.00
2019-03-12T03:18:13.488Z,7.23
2019-03-12T03:20:42.024Z,6.90
2019-03-12T03:23:10.692Z,5.70
2019-03-12T03:25:39.645Z,5.73
2019-03-12T03:28:08.287Z,6.20
2019-03-12T03:30:36.897Z,5.90
2019-03-12T03:33:05.578Z,6.90
2019-03-12T03:35:34.495Z,6.80
2019-03-12T03:38:03.267Z,6.13
2019-03-12T03:40:31.809Z,6.30
2019-03-12T03:43:00.466Z,5.60
2019-03-12T03:45:29.126Z,5.57
2019-03-12T03:47:57.663Z,5.07
2019-03-12T03:50:26.317Z,5.30
2019-03-12T03:52:54.883Z,5.67
2019-03-12T03:55:23.801Z,5.77
2019-03-12T03:57:52.615Z,5.80
2019-03-12T04:00:26.972Z,6.00
2019-03-12T04:02:55.633Z,6.33
2019-03-12T04:05:24.180Z,6.87
2019-03-12T04:07:52.821Z,5.70
2019-03-12T04:10:21.667Z,11.00
2019-03-12T04:12:50.247Z,6.30
2019-03-12T04:15:19.475Z,5.77
2019-03-12T04:17:48.299Z,5.70
2019-03-12T04:20:18.230Z,7.50
2019-03-12T04:22:46.946Z,7.17
2019-03-12T04:25:15.654Z,5.87
2019-03-12T04:27:44.268Z,7.33
2019-03-12T04:30:17.768Z,6.17
2019-03-12T04:32:46.376Z,4.70
2019-03-12T04:35:34.482Z,6.90
2019-03-12T04:38:03.050Z,6.70
2019-03-12T04:40:31.620Z,5.10
2019-03-12T04:43:00.191Z,7.57
2019-03-12T04:45:28.759Z,5.63
2019-03-12T04:47:57.308Z,4.73
2019-03-12T04:50:25.907Z,6.23
2019-03-12T04:52:54.456Z,7.63
2019-03-12T04:55:23.031Z,7.57
2019-03-12T04:57:51.609Z,7.27
2019-03-12T05:00:23.118Z,8.77
2019-03-12T05:02:51.707Z,8.27
2019-03-12T05:05:20.268Z,7.57
2019-03-12T05:07:48.847Z,7.73
2019-03-12T05:10:17.861Z,8.43
2019-03-12T05:12:46.685Z,7.87
2019-03-12T05:15:17.283Z,7.03
2019-03-12T05:17:46.062Z,7.83
2019-03-12T05:20:15.667Z,7.17
2019-03-12T05:22:44.358Z,8.00
2019-03-12T05:25:16.250Z,7.97
2019-03-12T05:27:44.886Z,7.37
2019-03-12T05:30:16.101Z,10.40
2019-03-12T05:32:44.696Z,10.77
2019-03-12T05:35:13.615Z,8.40
2019-03-12T05:37:42.417Z,10.73
2019-03-12T05:40:12.914Z,9.83
2019-03-12T05:42:41.585Z,7.60
2019-03-12T05:45:15.018Z,10.87
2019-03-12T05:47:43.643Z,9.60
2019-03-12T05:50:14.074Z,12.83
2019-03-12T05:52:42.688Z,12.47
2019-03-12T05:55:12.818Z,13.80
2019-03-12T05:57:41.474Z,12.00
2019-03-12T06:00:15.759Z,9.20
2019-03-12T06:02:44.367Z,12.67
2019-03-12T06:05:13.055Z,11.90
2019-03-12T06:07:41.602Z,10.80
2019-03-12T06:10:12.597Z,10.33
2019-03-12T06:12:41.176Z,12.03
2019-03-12T06:15:14.639Z,8.70
2019-03-12T06:17:43.206Z,10.67
2019-03-12T06:20:13.287Z,12.77
2019-03-12T06:22:41.878Z,12.33
2019-03-12T06:25:10.714Z,13.23
2019-03-12T06:27:39.350Z,11.67
2019-03-12T06:30:11.000Z,12.07
2019-03-12T06:32:47.263Z,12.30
2019-03-12T06:35:17.545Z,10.80
2019-03-12T06:37:50.498Z,12.90
2019-03-12T06:40:23.429Z,14.23
2019-03-12T06:42:53.666Z,11.87
2019-03-12T06:45:26.970Z,12.63
2019-03-12T06:48:03.352Z,14.33
2019-03-12T06:50:33.606Z,13.30
2019-03-12T06:53:04.129Z,17.63
2019-03-12T06:55:37.482Z,13.73
2019-03-12T06:58:18.376Z,11.50
2019-03-12T07:00:51.374Z,12.30
2019-03-12T07:03:30.337Z,11.43
2019-03-12T07:06:15.856Z,10.83
2019-03-12T07:09:02.502Z,12.77
2019-03-12T07:11:49.047Z,12.43
2019-03-12T07:14:22.410Z,11.17
2019-03-12T07:16:53.699Z,18.47
2019-03-12T07:19:36.066Z,14.67
2019-03-12T07:22:09.419Z,16.13
2019-03-12T07:24:57.630Z,14.23
2019-03-12T07:27:27.860Z,17.20
2019-03-12T07:30:03.947Z,11.13
2019-03-12T07:32:43.161Z,17.40
2019-03-12T07:35:28.471Z,12.93
2019-03-12T07:38:01.478Z,15.63
2019-03-12T07:40:37.714Z,15.43
2019-03-12T07:43:13.763Z,13.37
2019-03-12T07:45:52.740Z,16.57
2019-03-12T07:48:38.263Z,14.03
2019-03-12T07:51:24.693Z,14.77
2019-03-12T07:56:46.935Z,16.57
2019-03-12T07:59:22.976Z,13.00
2019-03-12T08:01:53.174Z,15.77
2019-03-12T08:04:39.485Z,12.47
2019-03-12T08:07:26.462Z,11.83
2019-03-12T08:10:08.754Z,13.90
2019-03-12T08:12:47.706Z,12.67
2019-03-12T08:15:35.720Z,16.03
2019-03-12T08:18:06.181Z,11.80
2019-03-12T08:20:36.391Z,13.07
2019-03-12T08:23:06.687Z,15.60
2019-03-12T08:25:46.124Z,14.17
2019-03-12T08:28:16.321Z,13.70
2019-03-12T08:30:52.325Z,13.05
2019-03-12T08:33:22.553Z,11.00
2019-03-12T08:35:53.119Z,10.37
2019-03-12T08:38:26.405Z,11.63
2019-03-12T08:41:15.068Z,9.77
2019-03-12T08:43:57.382Z,8.93
2019-03-12T08:46:36.892Z,8.33
2019-03-12T08:49:09.914Z,7.67
2019-03-12T08:51:42.866Z,9.23
2019-03-12T08:54:21.354Z,9.63
2019-03-12T08:57:06.551Z,7.10
2019-03-12T08:59:36.778Z,7.73
2019-03-12T09:02:25.954Z,7.27
2019-03-12T09:05:12.044Z,9.50
2019-03-12T09:08:00.634Z,7.03
2019-03-12T09:10:33.566Z,7.37
2019-03-12T09:13:18.739Z,7.10
2019-03-12T09:15:57.657Z,9.87
2019-03-12T09:18:30.395Z,10.70
2019-03-12T09:21:06.318Z,8.05
2019-03-12T09:23:42.386Z,7.97
2019-03-12T09:26:24.848Z,10.63
2019-03-12T09:29:10.678Z,8.60
2019-03-12T09:31:49.776Z,6.80
2019-03-12T09:34:23.004Z,7.10
2019-03-12T09:36:53.531Z,8.77
2019-03-12T09:39:41.671Z,6.65
2019-03-12T09:42:18.237Z,11.33
2019-03-12T09:44:51.620Z,7.50
2019-03-12T09:47:33.771Z,6.00
2019-03-12T09:50:04.015Z,5.17
2019-03-12T09:52:37.175Z,6.00
2019-03-12T09:55:17.479Z,6.17
2019-03-12T09:57:59.421Z,7.60
2019-03-12T10:00:41.482Z,4.20
2019-03-12T10:03:11.693Z,5.10
2019-03-12T10:05:41.970Z,8.00
2019-03-12T10:08:24.519Z,5.27
2019-03-12T10:11:11.186Z,4.63
2019-03-12T10:13:43.853Z,5.27
2019-03-12T10:16:32.535Z,7.80
2019-03-12T10:19:02.742Z,5.40
2019-03-12T10:21:45.252Z,5.40
2019-03-12T10:24:21.471Z,5.60
2019-03-12T10:27:04.047Z,5.70
2019-03-12T10:29:42.918Z,6.03
2019-03-12T10:32:13.438Z,6.10
2019-03-12T10:34:52.536Z,7.07
2019-03-12T10:37:23.204Z,6.27
2019-03-12T10:40:07.890Z,6.70
2019-03-12T10:42:41.155Z,7.07
2019-03-12T10:45:22.168Z,6.40
2019-03-12T10:47:52.345Z,6.37
2019-03-12T10:50:20.828Z,6.17
2019-03-12T10:52:49.495Z,5.80
2019-03-12T10:55:18.059Z,6.90
2019-03-12T10:57:46.634Z,5.23
2019-03-12T11:00:17.626Z,5.20
2019-03-12T11:02:46.346Z,5.13
2019-03-12T11:05:15.500Z,5.13
2019-03-12T11:07:44.311Z,4.97
2019-03-12T11:10:20.251Z,4.03
2019-03-12T11:12:48.914Z,3.97
2019-03-12T11:15:17.602Z,3.57
2019-03-12T11:17:49.813Z,3.90
2019-03-12T11:20:24.624Z,4.30
2019-03-12T11:22:53.211Z,4.10
2019-03-12T11:25:27.167Z,3.97
2019-03-12T11:27:52.487Z,3.00
2019-03-12T11:30:21.310Z,3.37
2019-03-12T11:32:49.990Z,3.40
2019-03-12T11:35:18.635Z,2.97
2019-03-12T11:37:47.246Z,3.50
2019-03-12T11:40:21.525Z,3.37
2019-03-12T11:42:50.704Z,4.40
2019-03-12T11:45:20.556Z,2.80
2019-03-12T11:47:49.643Z,3.40
2019-03-12T11:50:21.554Z,2.83
2019-03-12T11:52:55.515Z,3.43
2019-03-12T11:55:20.891Z,4.23
2019-03-12T11:57:49.605Z,3.43
2019-03-12T12:00:43.894Z,4.07
2019-03-12T12:03:12.600Z,4.00
2019-03-12T12:05:41.258Z,2.70
2019-03-12T12:08:10.155Z,3.57
2019-03-12T12:10:38.779Z,3.23
2019-03-12T12:13:07.438Z,4.73
2019-03-12T12:15:36.087Z,3.27
2019-03-12T12:18:06.603Z,5.00
2019-03-12T12:20:35.269Z,4.13
2019-03-12T12:23:03.827Z,4.28
2019-03-12T12:25:32.426Z,3.70
2019-03-12T12:28:01.036Z,3.97
2019-03-12T12:30:29.650Z,5.10
2019-03-12T12:32:58.231Z,4.53
2019-03-12T12:35:26.786Z,5.70
2019-03-12T12:37:55.719Z,5.00
2019-03-12T12:40:24.299Z,5.00
2019-03-12T12:42:52.879Z,4.67
2019-03-12T12:45:35.959Z,3.80
2019-03-12T12:48:04.778Z,4.50
2019-03-12T12:50:33.539Z,4.23
2019-03-12T12:53:02.195Z,3.20
2019-03-12T12:55:30.858Z,3.53
2019-03-12T12:57:59.411Z,3.67
2019-03-12T13:00:29.510Z,3.13
2019-03-12T13:02:58.325Z,2.60
2019-03-12T13:05:26.887Z,3.10
2019-03-12T13:07:55.816Z,2.80
2019-03-12T13:10:27.878Z,3.20
2019-03-12T13:12:56.960Z,2.20
2019-03-12T13:15:25.965Z,2.50
2019-03-12T13:17:54.938Z,2.30
2019-03-12T13:20:23.651Z,2.20
2019-03-12T13:22:52.366Z,2.62
2019-03-12T13:25:21.266Z,3.20
2019-03-12T13:27:50.109Z,2.37
2019-03-12T13:30:20.338Z,2.30
2019-03-12T13:32:49.615Z,2.47
2019-03-12T13:35:18.955Z,1.90
2019-03-12T13:37:48.554Z,1.80
2019-03-12T13:40:18.849Z,2.03
2019-03-12T13:42:47.506Z,2.47
2019-03-12T13:45:18.948Z,1.63
2019-03-12T13:47:47.680Z,2.47
2019-03-12T13:50:16.426Z,1.53
2019-03-12T13:52:45.127Z,1.57
2019-03-12T13:55:15.414Z,1.10
2019-03-12T13:57:44.286Z,2.70
2019-03-12T14:00:18.567Z,1.40
2019-03-12T14:02:47.394Z,2.87
2019-03-12T14:05:16.394Z,2.03
2019-03-12T14:07:45.201Z,1.40
2019-03-12T14:10:25.518Z,1.67
2019-03-12T14:12:55.304Z,1.00
2019-03-12T14:15:29.361Z,4.37
2019-03-12T14:17:58.147Z,1.93
2019-03-12T14:20:46.026Z,2.43
2019-03-12T14:23:26.622Z,0.90
2019-03-12T14:25:55.259Z,1.47
2019-03-12T14:28:23.906Z,1.57
2019-03-12T14:30:52.561Z,2.27
2019-03-12T14:33:21.267Z,1.10
2019-03-12T14:35:51.718Z,1.30
2019-03-12T14:38:20.322Z,1.20
2019-03-12T14:40:48.947Z,1.00
2019-03-12T14:43:18.238Z,1.00
2019-03-12T14:45:51.247Z,1.97
2019-03-12T14:48:39.393Z,1.57
2019-03-12T14:51:16.870Z,1.30
2019-03-12T14:53:48.535Z,1.65
2019-03-12T14:56:17.106Z,1.70
2019-03-12T14:58:45.743Z,1.20
2019-03-12T15:01:14.362Z,1.40
2019-03-12T15:03:43.259Z,1.40
2019-03-12T15:06:11.876Z,1.80
2019-03-12T15:08:40.466Z,1.83
2019-03-12T15:11:09.113Z,1.13
2019-03-12T15:13:37.672Z,1.47
2019-03-12T15:16:06.241Z,1.43
2019-03-12T15:18:34.800Z,1.60
2019-03-12T15:21:03.357Z,2.93
2019-03-12T15:23:31.946Z,1.50
2019-03-12T15:26:00.505Z,1.93
2019-03-12T15:28:29.094Z,1.97
2019-03-12T15:30:57.834Z,2.23
2019-03-12T15:33:26.442Z,1.60
2019-03-12T15:35:54.954Z,1.50
2019-03-12T15:38:23.499Z,1.50
2019-03-12T15:40:52.067Z,2.13
2019-03-12T15:43:21.004Z,1.70
2019-03-12T15:45:49.702Z,1.57
2019-03-12T15:48:21.460Z,3.13
2019-03-12T15:50:48.970Z,1.93
2019-03-12T15:53:17.515Z,2.37
2019-03-12T15:55:46.087Z,1.97
2019-03-12T15:58:14.656Z,4.00
2019-03-12T16:00:43.203Z,1.50
2019-03-12T16:03:11.794Z,1.63
2019-03-12T16:05:40.415Z,1.90
2019-03-12T16:08:09.074Z,2.20
2019-03-12T16:10:37.644Z,2.03
2019-03-12T16:13:07.825Z,1.70
2019-03-12T16:15:37.826Z,2.13
2019-03-12T16:18:06.562Z,4.80
2019-03-12T16:20:35.653Z,1.73
2019-03-12T16:23:04.362Z,1.50
2019-03-12T16:25:32.988Z,1.63
2019-03-12T16:28:01.655Z,1.93
2019-03-12T16:30:30.235Z,3.20
2019-03-12T16:32:58.785Z,2.90
2019-03-12T16:35:27.382Z,2.50
2019-03-12T16:37:55.946Z,1.77
2019-03-12T16:40:24.499Z,2.57
2019-03-12T16:42:53.085Z,3.17
2019-03-12T16:45:21.919Z,1.53
2019-03-12T16:47:50.515Z,3.40
2019-03-12T16:50:20.685Z,1.73
2019-03-12T16:52:49.309Z,9.00
2019-03-12T16:55:18.648Z,4.47
2019-03-12T16:57:47.206Z,2.00
2019-03-12T17:00:19.118Z,2.55
2019-03-12T17:02:47.710Z,2.43
2019-03-12T17:05:16.319Z,3.87
2019-03-12T17:07:44.988Z,4.60
2019-03-12T17:10:21.119Z,1.73
2019-03-12T17:12:49.765Z,2.03
2019-03-12T17:15:23.154Z,2.63
2019-03-12T17:17:51.778Z,10.13
2019-03-12T17:20:20.419Z,98.90
2019-03-12T17:22:49.270Z,78.27
2019-03-12T17:25:17.847Z,21.47
2019-03-12T17:27:46.491Z,20.73
2019-03-12T17:30:20.654Z,23.83
2019-03-12T17:32:49.262Z,6.93
2019-03-12T17:35:20.876Z,4.07
2019-03-12T17:37:49.410Z,5.53
2019-03-12T17:40:20.811Z,3.40
2019-03-12T17:42:49.560Z,2.57
2019-03-12T17:45:18.142Z,3.07
2019-03-12T17:47:46.736Z,3.20
2019-03-12T17:50:15.561Z,4.17
2019-03-12T17:52:44.195Z,3.70
2019-03-12T17:55:16.410Z,3.73
2019-03-12T17:57:44.984Z,4.13
2019-03-12T18:00:20.318Z,4.57
2019-03-12T18:02:49.221Z,2.37
2019-03-12T18:05:17.829Z,2.93
2019-03-12T18:07:46.557Z,3.33
2019-03-12T18:10:18.884Z,2.43
2019-03-12T18:12:47.592Z,3.20
2019-03-12T18:15:19.228Z,2.80
2019-03-12T18:17:47.912Z,5.20
2019-03-12T18:20:20.870Z,4.63
2019-03-12T18:22:49.441Z,2.03
2019-03-12T18:25:28.911Z,3.23
2019-03-12T18:27:57.576Z,3.40
2019-03-12T18:30:26.197Z,2.37
2019-03-12T18:32:54.762Z,2.73
2019-03-12T18:35:23.338Z,4.87
2019-03-12T18:37:51.943Z,4.33
2019-03-12T18:40:22.725Z,2.30
2019-03-12T18:42:51.374Z,2.97
2019-03-12T18:45:22.469Z,4.05
2019-03-12T18:47:51.097Z,2.77
2019-03-12T18:50:20.318Z,3.10
2019-03-12T18:52:48.873Z,4.57
2019-03-12T18:55:38.102Z,2.23
2019-03-12T18:58:08.003Z,3.13
2019-03-12T19:00:38.317Z,3.97
2019-03-12T19:03:07.259Z,2.20
2019-03-12T19:05:35.824Z,2.67
2019-03-12T19:08:04.482Z,4.70
2019-03-12T19:10:33.400Z,3.27
2019-03-12T19:13:02.037Z,2.43
2019-03-12T19:15:30.669Z,3.83
2019-03-12T19:17:59.348Z,2.90
2019-03-12T19:20:28.008Z,4.10
2019-03-12T19:22:56.845Z,3.80
2019-03-12T19:25:31.107Z,2.57
2019-03-12T19:28:00.633Z,3.43
2019-03-12T19:30:29.442Z,4.20
2019-03-12T19:33:00.135Z,3.40
2019-03-12T19:35:30.466Z,4.40
2019-03-12T19:38:00.276Z,2.60
2019-03-12T19:40:34.623Z,6.17
2019-03-12T19:43:03.425Z,3.53
2019-03-12T19:45:32.315Z,4.13
2019-03-12T19:48:01.285Z,3.50
2019-03-12T19:50:30.098Z,5.30
2019-03-12T19:52:59.186Z,4.93
2019-03-12T19:55:34.572Z,4.10
2019-03-12T19:58:03.223Z,4.27
2019-03-12T20:00:32.330Z,3.83
2019-03-12T20:03:10.076Z,5.80
2019-03-12T20:05:31.358Z,5.43
2019-03-12T20:08:00.187Z,3.30
2019-03-12T20:10:54.801Z,4.73
2019-03-12T20:14:00.244Z,4.87
2019-03-12T20:16:51.972Z,7.17
2019-03-12T20:19:43.607Z,10.47
2019-03-12T20:22:30.694Z,6.17
2019-03-12T20:25:20.695Z,4.37
2019-03-12T20:28:25.559Z,4.17
2019-03-12T20:31:21.533Z,6.70
2019-03-12T20:34:23.460Z,3.40
2019-03-12T20:37:20.703Z,3.37
2019-03-12T20:40:21.271Z,6.50
2019-03-12T20:42:52.978Z,4.93
2019-03-12T20:45:41.230Z,4.03
2019-03-12T20:48:37.971Z,3.33
2019-03-12T20:51:32.656Z,2.97
2019-03-12T20:54:15.899Z,3.80
2019-03-12T20:57:03.897Z,4.47
2019-03-12T20:59:52.012Z,2.60
2019-03-12T21:02:48.097Z,4.43
2019-03-12T21:05:36.270Z,2.63
2019-03-12T21:08:37.203Z,6.80
2019-03-12T21:11:34.599Z,6.27
2019-03-12T21:14:26.038Z,6.27
2019-03-12T21:17:06.051Z,4.00
2019-03-12T21:20:00.845Z,4.07
2019-03-12T21:22:35.356Z,4.33
2019-03-12T21:25:25.655Z,5.67
2019-03-12T21:28:18.480Z,4.53
2019-03-12T21:30:47.012Z,3.70
2019-03-12T21:33:15.934Z,5.00
2019-03-12T21:35:44.656Z,5.83
2019-03-12T21:38:13.306Z,5.47
2019-03-12T21:40:41.885Z,4.03
2019-03-12T21:43:11.106Z,4.70
2019-03-12T21:45:39.873Z,2.40
2019-03-12T21:48:08.419Z,4.00
2019-03-12T21:50:37.044Z,6.67
2019-03-12T21:53:05.867Z,7.83
2019-03-12T21:55:37.567Z,4.07
2019-03-12T21:58:05.389Z,4.83
2019-03-12T22:00:33.984Z,5.30
2019-03-12T22:03:02.575Z,3.67
2019-03-12T22:05:31.442Z,4.43
2019-03-12T22:08:00.007Z,3.20
2019-03-12T22:10:28.559Z,2.97
2019-03-12T22:12:57.533Z,4.23
2019-03-12T22:15:29.399Z,6.17
2019-03-12T22:17:56.341Z,4.93
2019-03-12T22:20:25.291Z,4.43
2019-03-12T22:22:58.395Z,2.83
2019-03-12T22:25:26.997Z,3.73
2019-03-12T22:27:55.550Z,3.67
2019-03-12T22:30:25.744Z,4.07
2019-03-12T22:32:54.400Z,3.13
2019-03-12T22:35:23.058Z,2.23
2019-03-12T22:37:51.642Z,5.03
2019-03-12T22:40:20.242Z,3.70
2019-03-12T22:42:48.821Z,3.67
2019-03-12T22:45:17.508Z,2.27
2019-03-12T22:47:46.127Z,3.17
2019-03-12T22:50:16.298Z,3.17
2019-03-12T22:52:45.266Z,4.10
2019-03-12T22:55:15.067Z,6.17
2019-03-12T22:57:43.642Z,4.97
2019-03-12T23:00:16.726Z,3.30
2019-03-12T23:02:45.355Z,3.83
2019-03-12T23:05:14.831Z,6.10
2019-03-12T23:07:43.463Z,3.50
2019-03-12T23:10:13.727Z,2.43
2019-03-12T23:12:42.554Z,6.27
2019-03-12T23:15:16.568Z,3.90
2019-03-12T23:17:45.253Z,3.17
2019-03-12T23:20:17.022Z,3.53
2019-03-12T23:22:45.592Z,4.30
2019-03-12T23:25:14.182Z,2.73
2019-03-12T23:27:42.821Z,4.43
2019-03-12T23:30:17.286Z,4.27
2019-03-12T23:32:46.117Z,6.60
2019-03-12T23:35:14.935Z,5.33
2019-03-12T23:37:43.499Z,3.93
2019-03-12T23:40:15.790Z,4.43
2019-03-12T23:42:44.424Z,4.60
2019-03-12T23:45:14.730Z,4.53
2019-03-12T23:47:43.370Z,2.90
2019-03-12T23:50:16.594Z,3.30
2019-03-12T23:52:45.505Z,4.90
2019-03-12T23:55:16.982Z,4.87
2019-03-12T23:57:45.622Z,5.17
